createdAt,value
2022-10-20T00:00:01.009Z,9.23
2022-10-20T00:03:26.245Z,8.47
2022-10-20T00:06:52.730Z,8.70
2022-10-20T00:10:17.310Z,8.20
2022-10-20T00:13:42.732Z,8.80
2022-10-20T00:17:07.857Z,9.03
2022-10-20T00:20:31.489Z,8.90
2022-10-20T00:23:56.205Z,8.70
2022-10-20T00:27:21.046Z,9.30
2022-10-20T00:30:45.536Z,9.47
2022-10-20T00:34:10.955Z,9.00
2022-10-20T00:37:34.686Z,8.60
2022-10-20T00:40:59.897Z,8.63
2022-10-20T00:44:51.421Z,10.30
2022-10-20T00:48:17.426Z,10.00
2022-10-20T00:51:43.932Z,9.53
2022-10-20T00:55:09.763Z,11.00
2022-10-20T00:58:36.158Z,10.60
2022-10-20T01:02:02.067Z,10.70
2022-10-20T01:05:25.685Z,9.70
2022-10-20T01:08:51.967Z,10.90
2022-10-20T01:12:28.474Z,11.67
2022-10-20T01:16:00.542Z,12.90
2022-10-20T01:20:09.979Z,12.27
2022-10-20T01:24:01.240Z,11.57
2022-10-20T01:27:37.320Z,10.90
2022-10-20T01:31:05.357Z,10.63
2022-10-20T01:34:33.886Z,12.27
2022-10-20T01:38:07.428Z,11.50
2022-10-20T01:41:34.120Z,11.23
2022-10-20T01:45:02.726Z,12.40
2022-10-20T01:48:31.592Z,10.53
2022-10-20T01:51:56.930Z,11.40
2022-10-20T01:55:20.441Z,12.53
2022-10-20T01:59:20.327Z,11.27
2022-10-20T02:02:59.733Z,12.03
2022-10-20T02:06:33.253Z,11.97
2022-10-20T02:10:01.642Z,11.23
2022-10-20T02:13:28.281Z,10.83
2022-10-20T02:16:56.419Z,12.47
2022-10-20T02:20:22.349Z,11.83
2022-10-20T02:23:49.296Z,12.60
2022-10-20T02:27:16.995Z,12.90
2022-10-20T02:30:42.063Z,13.00
2022-10-20T02:34:05.789Z,12.70
2022-10-20T02:37:31.136Z,12.37
2022-10-20T02:40:54.641Z,12.47
2022-10-20T02:44:20.099Z,12.30
2022-10-20T02:47:44.963Z,13.57
2022-10-20T02:51:08.717Z,13.40
2022-10-20T02:54:34.042Z,12.57
2022-10-20T02:57:57.763Z,12.30
2022-10-20T03:01:22.426Z,12.53
2022-10-20T03:04:46.698Z,13.70
2022-10-20T03:08:10.764Z,12.23
2022-10-20T03:11:36.474Z,12.40
2022-10-20T03:15:00.680Z,13.63
2022-10-20T03:18:24.715Z,12.77
2022-10-20T03:21:49.574Z,14.40
2022-10-20T03:25:13.736Z,12.73
2022-10-20T03:28:38.691Z,14.57
2022-10-20T03:32:02.892Z,13.70
2022-10-20T03:35:26.838Z,12.50
2022-10-20T03:38:50.814Z,12.60
2022-10-20T03:42:15.624Z,12.33
2022-10-20T03:45:42.346Z,13.57
2022-10-20T03:49:05.917Z,13.17
2022-10-20T03:52:29.739Z,12.17
2022-10-20T03:55:53.992Z,12.80
2022-10-20T03:59:17.749Z,12.93
2022-10-20T04:02:47.166Z,11.80
2022-10-20T04:06:12.778Z,12.90
2022-10-20T04:09:36.283Z,13.53
2022-10-20T04:13:01.216Z,11.80
2022-10-20T04:16:25.940Z,12.33
2022-10-20T04:19:51.127Z,13.80
2022-10-20T04:23:14.912Z,12.70
2022-10-20T04:26:38.858Z,14.40
2022-10-20T04:30:04.887Z,14.33
2022-10-20T04:33:29.624Z,12.60
2022-10-20T04:36:56.675Z,13.50
2022-10-20T04:40:20.818Z,11.77
2022-10-20T04:43:44.914Z,12.53
2022-10-20T04:47:11.554Z,13.70
2022-10-20T04:50:35.059Z,12.13
2022-10-20T04:54:07.394Z,11.60
2022-10-20T04:57:31.851Z,12.80
2022-10-20T05:00:55.938Z,13.50
2022-10-20T05:04:21.706Z,12.40
2022-10-20T05:07:45.380Z,13.00
2022-10-20T05:11:13.037Z,11.50
2022-10-20T05:14:36.693Z,12.40
2022-10-20T05:18:01.039Z,11.77
2022-10-20T05:21:27.395Z,11.30
2022-10-20T05:24:51.856Z,12.23
2022-10-20T05:28:16.881Z,13.03
2022-10-20T05:31:43.034Z,12.43
2022-10-20T05:35:07.494Z,10.63
2022-10-20T05:38:31.133Z,12.07
2022-10-20T05:41:54.982Z,12.50
2022-10-20T05:45:21.565Z,13.77
2022-10-20T05:48:45.498Z,13.80
2022-10-20T05:52:09.964Z,14.20
2022-10-20T05:55:34.222Z,11.70
2022-10-20T05:58:59.090Z,11.87
2022-10-20T06:02:24.352Z,13.17
2022-10-20T06:05:48.026Z,13.30
2022-10-20T06:09:13.075Z,13.30
2022-10-20T06:12:37.454Z,11.53
2022-10-20T06:16:06.497Z,12.27
2022-10-20T06:19:31.859Z,11.70
2022-10-20T06:23:02.594Z,13.00
2022-10-20T06:26:32.766Z,12.10
2022-10-20T06:30:01.679Z,11.70
2022-10-20T06:33:26.355Z,12.90
2022-10-20T06:36:54.207Z,12.20
2022-10-20T06:40:18.165Z,13.87
2022-10-20T06:43:42.033Z,12.47
2022-10-20T06:47:09.993Z,12.03
2022-10-20T06:50:34.843Z,12.07
2022-10-20T06:54:01.841Z,12.43
2022-10-20T06:57:28.779Z,11.40
2022-10-20T07:01:00.628Z,10.80
2022-10-20T07:04:25.102Z,11.97
2022-10-20T07:07:49.151Z,10.00
2022-10-20T07:11:16.336Z,12.10
2022-10-20T07:14:40.057Z,10.23
2022-10-20T07:18:06.346Z,10.47
2022-10-20T07:21:34.942Z,10.57
2022-10-20T07:25:06.057Z,10.20
2022-10-20T07:28:31.365Z,9.83
2022-10-20T07:31:57.806Z,10.23
2022-10-20T07:35:25.284Z,9.27
2022-10-20T07:38:49.605Z,11.03
2022-10-20T07:42:13.226Z,10.30
2022-10-20T07:45:38.107Z,10.13
2022-10-20T07:52:45.249Z,9.00
2022-10-20T07:56:09.200Z,11.57
2022-10-20T07:59:32.926Z,8.30
2022-10-20T08:02:57.920Z,8.87
2022-10-20T08:06:21.610Z,8.67
2022-10-20T08:13:14.377Z,8.83
2022-10-20T08:16:44.433Z,10.47
2022-10-20T08:20:22.400Z,9.43
2022-10-20T08:23:50.103Z,9.63
2022-10-20T08:27:13.651Z,10.37
2022-10-20T08:30:37.416Z,9.53
2022-10-20T08:34:01.004Z,9.10
2022-10-20T08:37:26.264Z,9.37
2022-10-20T08:40:49.862Z,9.10
2022-10-20T08:44:19.232Z,8.20
2022-10-20T08:47:44.568Z,8.30
2022-10-20T08:51:13.866Z,8.10
2022-10-20T08:54:38.847Z,8.43
2022-10-20T08:58:04.879Z,7.43
2022-10-20T09:01:31.565Z,8.07
2022-10-20T09:04:59.632Z,7.67
2022-10-20T09:08:25.129Z,8.40
2022-10-20T09:11:50.642Z,7.10
2022-10-20T09:15:17.282Z,8.07
2022-10-20T09:18:41.562Z,7.50
2022-10-20T09:22:07.377Z,6.90
2022-10-20T09:25:32.095Z,7.10
2022-10-20T09:29:15.825Z,7.43
2022-10-20T09:32:46.434Z,7.00
2022-10-20T09:36:15.558Z,7.87
2022-10-20T09:39:54.155Z,7.70
2022-10-20T09:43:19.655Z,6.43
2022-10-20T09:46:50.563Z,7.73
2022-10-20T09:50:21.492Z,7.53
2022-10-20T09:53:56.293Z,6.93
2022-10-20T09:57:23.163Z,7.47
2022-10-20T10:00:57.767Z,7.23
2022-10-20T10:04:33.998Z,7.57
2022-10-20T10:07:59.893Z,7.70
2022-10-20T10:11:26.017Z,6.83
2022-10-20T10:14:53.078Z,6.20
2022-10-20T10:18:23.934Z,6.90
2022-10-20T10:21:53.504Z,7.50
2022-10-20T10:25:24.016Z,7.53
2022-10-20T10:28:59.307Z,8.00
2022-10-20T10:32:26.786Z,6.80
2022-10-20T10:35:50.811Z,6.47
2022-10-20T10:39:16.599Z,7.73
2022-10-20T10:42:55.695Z,6.20
2022-10-20T10:46:22.627Z,6.40
2022-10-20T10:49:56.461Z,7.47
2022-10-20T10:53:29.732Z,6.30
2022-10-20T10:56:57.762Z,6.40
2022-10-20T11:00:33.608Z,6.87
2022-10-20T11:04:30.378Z,6.43
2022-10-20T11:08:05.398Z,5.50
2022-10-20T11:11:42.466Z,5.30
2022-10-20T11:15:17.505Z,5.93
2022-10-20T11:19:07.979Z,5.83
2022-10-20T11:22:44.565Z,5.83
2022-10-20T11:26:17.540Z,4.67
2022-10-20T11:29:43.976Z,5.37
2022-10-20T11:33:15.137Z,6.33
2022-10-20T11:36:45.081Z,5.70
2022-10-20T11:40:22.535Z,6.13
2022-10-20T11:43:52.698Z,5.70
2022-10-20T11:47:20.715Z,5.27
2022-10-20T11:54:43.259Z,5.30
2022-10-20T11:58:33.361Z,6.40
2022-10-20T12:02:22.540Z,5.63
2022-10-20T12:06:10.061Z,5.87
2022-10-20T12:10:00.645Z,5.30
2022-10-20T12:13:34.720Z,6.40
2022-10-20T12:17:14.312Z,6.30
2022-10-20T12:21:03.691Z,6.13
2022-10-20T12:24:33.203Z,6.47
2022-10-20T12:28:33.053Z,6.30
2022-10-20T12:32:45.196Z,7.37
2022-10-20T12:36:30.856Z,6.20
2022-10-20T12:39:56.193Z,6.07
2022-10-20T12:43:30.960Z,6.40
2022-10-20T12:46:57.846Z,5.90
2022-10-20T12:50:31.287Z,6.60
2022-10-20T12:54:00.647Z,5.60
2022-10-20T12:57:31.339Z,7.00
2022-10-20T13:01:05.702Z,6.87
2022-10-20T13:04:55.044Z,8.20
2022-10-20T13:08:27.501Z,6.37
2022-10-20T13:11:59.834Z,6.63
2022-10-20T13:15:26.589Z,6.37
2022-10-20T13:18:51.614Z,6.60
2022-10-20T13:22:39.392Z,6.50
2022-10-20T13:26:14.283Z,6.47
2022-10-20T13:29:43.696Z,6.37
2022-10-20T13:33:33.972Z,7.13
2022-10-20T13:37:14.149Z,6.90
2022-10-20T13:40:49.097Z,7.30
2022-10-20T13:44:31.524Z,8.20
2022-10-20T13:48:19.295Z,7.33
2022-10-20T13:51:48.158Z,7.30
2022-10-20T13:55:19.237Z,6.90
2022-10-20T13:58:43.474Z,7.50
2022-10-20T14:02:29.228Z,7.50
2022-10-20T14:05:55.445Z,7.23
2022-10-20T14:09:21.482Z,6.40
2022-10-20T14:12:45.149Z,8.90
2022-10-20T14:16:19.414Z,8.37
2022-10-20T14:19:46.029Z,7.70
2022-10-20T14:23:12.591Z,6.10
2022-10-20T14:26:37.853Z,7.87
2022-10-20T14:30:04.140Z,7.87
2022-10-20T14:33:28.512Z,9.80
2022-10-20T14:36:54.485Z,8.90
2022-10-20T14:40:23.227Z,9.40
2022-10-20T14:43:49.888Z,9.70
2022-10-20T14:47:15.756Z,9.27
2022-10-20T14:50:40.890Z,9.30
2022-10-20T14:54:26.068Z,8.67
2022-10-20T14:57:51.417Z,10.30
2022-10-20T15:01:23.850Z,10.70
2022-10-20T15:04:48.618Z,12.90
2022-10-20T15:08:25.098Z,14.53
2022-10-20T15:11:49.240Z,14.10
2022-10-20T15:15:23.965Z,14.80
2022-10-20T15:18:47.691Z,15.73
2022-10-20T15:25:48.036Z,15.13
2022-10-20T15:29:12.044Z,19.60
2022-10-20T15:32:38.090Z,14.77
2022-10-20T15:36:02.211Z,15.97
2022-10-20T15:39:25.854Z,14.80
2022-10-20T15:42:49.841Z,14.70
2022-10-20T15:46:14.983Z,15.43
2022-10-20T15:49:39.967Z,16.70
2022-10-20T15:53:03.621Z,15.63
2022-10-20T15:56:27.402Z,15.57
2022-10-20T15:59:51.023Z,14.77
2022-10-20T16:03:18.162Z,15.00
2022-10-20T16:06:43.673Z,15.70
2022-10-20T16:10:10.893Z,18.30
2022-10-20T16:13:34.552Z,24.00
2022-10-20T16:17:01.093Z,18.00
2022-10-20T16:20:24.653Z,15.97
2022-10-20T16:23:49.675Z,15.03
2022-10-20T16:27:13.343Z,14.70
2022-10-20T16:30:36.989Z,16.23
2022-10-20T16:34:00.957Z,15.97
2022-10-20T16:37:24.621Z,14.13
2022-10-20T16:40:59.433Z,16.80
2022-10-20T16:44:23.086Z,18.73
2022-10-20T16:47:46.666Z,17.27
2022-10-20T16:51:12.093Z,16.43
2022-10-20T16:54:36.282Z,17.53
2022-10-20T16:58:01.346Z,15.50
2022-10-20T17:01:25.071Z,17.10
2022-10-20T17:04:49.648Z,18.00
2022-10-20T17:08:13.235Z,17.93
2022-10-20T17:11:36.764Z,16.07
2022-10-20T17:15:01.751Z,15.97
2022-10-20T17:18:25.346Z,17.00
2022-10-20T17:21:52.493Z,15.90
2022-10-20T17:25:18.762Z,17.10
2022-10-20T17:28:42.972Z,15.13
2022-10-20T17:32:13.244Z,16.37
2022-10-20T17:35:48.677Z,15.03
2022-10-20T17:39:15.984Z,15.37
2022-10-20T17:42:40.005Z,17.63
2022-10-20T17:46:05.654Z,15.90
2022-10-20T17:49:30.642Z,16.70
2022-10-20T17:52:54.336Z,14.70
2022-10-20T17:56:22.122Z,15.40
2022-10-20T17:59:52.897Z,15.00
2022-10-20T18:03:17.813Z,16.37
2022-10-20T18:06:43.996Z,14.40
2022-10-20T18:10:09.066Z,15.47
2022-10-20T18:13:32.683Z,16.00
2022-10-20T18:16:56.639Z,16.43
2022-10-20T18:20:21.242Z,14.00
2022-10-20T18:23:48.142Z,15.23
2022-10-20T18:27:11.780Z,15.27
2022-10-20T18:30:38.832Z,16.73
2022-10-20T18:34:06.681Z,15.13
2022-10-20T18:37:30.843Z,15.37
2022-10-20T18:40:55.789Z,19.90
2022-10-20T18:44:20.419Z,14.70
2022-10-20T18:47:44.989Z,13.67
2022-10-20T18:51:10.277Z,12.60
2022-10-20T18:54:33.952Z,13.43
2022-10-20T18:57:58.959Z,15.13
2022-10-20T19:01:28.418Z,13.70
2022-10-20T19:04:51.977Z,12.60
2022-10-20T19:08:15.655Z,13.00
2022-10-20T19:11:40.690Z,12.63
2022-10-20T19:15:06.447Z,12.10
2022-10-20T19:18:31.093Z,12.90
2022-10-20T19:21:54.722Z,12.83
2022-10-20T19:25:18.300Z,12.10
2022-10-20T19:28:45.264Z,10.17
2022-10-20T19:32:11.371Z,12.30
2022-10-20T19:35:35.243Z,13.40
2022-10-20T19:38:59.406Z,13.70
2022-10-20T19:42:23.114Z,12.50
2022-10-20T19:45:49.183Z,12.97
2022-10-20T19:49:15.310Z,12.50
2022-10-20T19:52:39.310Z,13.30
2022-10-20T19:56:03.518Z,12.40
2022-10-20T19:59:27.546Z,12.10
2022-10-20T20:02:51.280Z,13.20
2022-10-20T20:06:18.270Z,12.33
2022-10-20T20:09:41.822Z,12.00
2022-10-20T20:13:05.761Z,13.17
2022-10-20T20:16:30.315Z,14.10
2022-10-20T20:19:53.953Z,11.43
2022-10-20T20:23:25.926Z,11.93
2022-10-20T20:26:58.256Z,12.50
2022-10-20T20:30:21.848Z,11.73
2022-10-20T20:33:45.504Z,11.80
2022-10-20T20:37:09.124Z,11.80
2022-10-20T20:40:34.154Z,12.83
2022-10-20T20:43:58.054Z,13.10
2022-10-20T20:47:21.702Z,12.33
2022-10-20T20:50:53.122Z,13.10
2022-10-20T20:54:16.753Z,12.03
2022-10-20T20:57:41.761Z,11.40
2022-10-20T21:01:07.303Z,12.47
2022-10-20T21:04:31.053Z,12.73
2022-10-20T21:07:54.674Z,12.47
2022-10-20T21:11:20.680Z,12.53
2022-10-20T21:14:47.853Z,12.60
2022-10-20T21:18:11.449Z,12.53
2022-10-20T21:21:37.247Z,12.20
2022-10-20T21:25:00.874Z,12.83
2022-10-20T21:28:24.574Z,13.00
2022-10-20T21:31:49.603Z,14.20
2022-10-20T21:35:13.277Z,14.10
2022-10-20T21:38:38.360Z,14.00
2022-10-20T21:42:02.006Z,13.80
2022-10-20T21:45:25.904Z,14.67
2022-10-20T21:48:52.646Z,15.17
2022-10-20T21:52:16.252Z,15.60
2022-10-20T21:55:39.881Z,14.60
2022-10-20T21:59:04.041Z,15.50
2022-10-20T22:02:27.570Z,15.90
2022-10-20T22:05:52.858Z,17.40
2022-10-20T22:09:17.590Z,15.93
2022-10-20T22:12:41.364Z,14.97
2022-10-20T22:16:06.653Z,16.57
2022-10-20T22:19:30.295Z,16.60
2022-10-20T22:22:55.359Z,15.40
2022-10-20T22:26:18.962Z,15.30
2022-10-20T22:29:44.442Z,16.73
2022-10-20T22:33:10.357Z,15.70
2022-10-20T22:36:36.518Z,16.23
2022-10-20T22:40:01.514Z,16.60
2022-10-20T22:43:28.024Z,15.97
2022-10-20T22:46:52.182Z,15.70
2022-10-20T22:50:16.345Z,16.77
2022-10-20T22:53:40.600Z,17.90
2022-10-20T22:57:06.658Z,16.63
2022-10-20T23:00:31.354Z,18.73
2022-10-20T23:03:55.295Z,15.83
2022-10-20T23:07:21.872Z,17.60
2022-10-20T23:10:46.278Z,15.93
2022-10-20T23:14:14.026Z,14.27
2022-10-20T23:17:38.614Z,16.30
2022-10-20T23:21:03.543Z,17.23
2022-10-20T23:24:27.253Z,16.60
2022-10-20T23:27:51.166Z,14.53
2022-10-20T23:31:19.346Z,15.70
2022-10-20T23:34:43.220Z,13.13
2022-10-20T23:38:09.302Z,13.83
2022-10-20T23:41:33.275Z,14.97
2022-10-20T23:44:57.402Z,15.87
2022-10-20T23:48:22.800Z,14.77
2022-10-20T23:51:47.591Z,15.50
2022-10-20T23:55:14.677Z,15.23
2022-10-20T23:58:40.223Z,13.70
